Time;durP1;ratioP1;P1;durP2;ratioP2;P2;SDS_P1;SDS_P2;PMS_P1;PMS_P2;Temp;Humidity;BMP_temperature;BMP_pressure;BME280_temperature;BME280_humidity;BME280_pressure;Samples;Min_cycle;Max_cycle;Signal;HPM_P1;HPM_P2
2020/12/08 00:00:25;;;;;;;19.50;11.03;;;;;;;-7.67;74.57;101197.91;1702387;84;21137;-61
2020/12/08 00:02:53;;;;;;;23.07;11.50;;;;;;;-7.66;74.49;101184.38;1742348;82;21173;-62
2020/12/08 00:05:20;;;;;;;13.30;8.90;;;;;;;-7.68;74.41;101190.19;1747655;82;21136;-64
2020/12/08 00:07:48;;;;;;;15.93;9.57;;;;;;;-7.73;74.44;101187.03;1747666;82;22158;-63
2020/12/08 00:10:20;;;;;;;16.77;9.47;;;;;;;-7.78;74.57;101177.34;1747694;82;21181;-62
2020/12/08 00:12:51;;;;;;;21.93;10.67;;;;;;;-7.84;74.77;101181.17;1713606;82;21196;-63
2020/12/08 00:15:19;;;;;;;21.10;9.33;;;;;;;-7.91;74.91;101179.05;1684226;85;21489;-62
2020/12/08 00:17:47;;;;;;;18.43;8.93;;;;;;;-7.87;75.03;101183.14;1706228;84;21117;-64
2020/12/08 00:20:17;;;;;;;15.67;8.87;;;;;;;-7.90;75.03;101179.39;1684238;85;21392;-63
2020/12/08 00:22:44;;;;;;;15.37;8.63;;;;;;;-7.98;75.17;101175.50;1716174;83;21017;-64
2020/12/08 00:25:13;;;;;;;14.77;8.13;;;;;;;-8.09;75.49;101177.93;1718006;83;21643;-63
2020/12/08 00:27:41;;;;;;;14.00;9.00;;;;;;;-8.13;75.82;101168.61;1717879;83;21623;-63
2020/12/08 00:30:12;;;;;;;19.90;11.43;;;;;;;-8.07;75.92;101167.41;1717427;83;21622;-64
2020/12/08 00:32:41;;;;;;;17.00;10.23;;;;;;;-8.05;75.90;101160.30;1717126;83;22390;-64
2020/12/08 00:35:10;;;;;;;18.67;9.97;;;;;;;-8.06;75.95;101156.03;1681322;85;21595;-65
2020/12/08 00:37:44;;;;;;;12.97;8.07;;;;;;;-8.03;75.92;101155.83;1663650;86;21636;-64
2020/12/08 00:40:14;;;;;;;15.47;8.47;;;;;;;-8.02;75.97;101161.44;1681306;85;21620;-62
2020/12/08 00:43:00;;;;;;;10.97;6.23;;;;;;;-8.01;75.96;101144.84;1671246;85;21180;-64
2020/12/08 00:45:30;;;;;;;14.07;8.23;;;;;;;-8.10;76.01;101146.23;1717157;83;21216;-67
2020/12/08 00:47:58;;;;;;;15.23;7.90;;;;;;;-8.16;76.15;101139.27;1700137;83;21076;-62
2020/12/08 00:50:27;;;;;;;10.33;7.57;;;;;;;-8.16;76.31;101140.11;1716167;83;21259;-67
2020/12/08 00:52:55;;;;;;;13.77;6.03;;;;;;;-8.17;76.30;101134.52;1713384;83;21139;-62
2020/12/08 00:55:22;;;;;;;11.77;7.20;;;;;;;-8.21;76.53;101140.86;1705520;83;21198;-63
2020/12/08 00:57:50;;;;;;;15.17;6.63;;;;;;;-8.19;76.64;101129.00;1716441;83;21210;-63
2020/12/08 01:00:20;;;;;;;14.30;9.17;;;;;;;-8.19;76.66;101131.61;1717714;83;21210;-63
2020/12/08 01:02:48;;;;;;;13.37;7.87;;;;;;;-8.27;76.89;101135.17;1709416;83;21574;-64
2020/12/08 01:05:17;;;;;;;13.63;7.33;;;;;;;-8.30;77.00;101131.48;1702653;83;21154;-65
2020/12/08 01:07:45;;;;;;;10.20;6.17;;;;;;;-8.25;77.11;101135.46;1677137;85;21593;-63
2020/12/08 01:10:15;;;;;;;10.90;7.10;;;;;;;-8.26;77.19;101125.11;1679180;83;21216;-63
2020/12/08 01:12:44;;;;;;;11.77;6.60;;;;;;;-8.27;77.22;101129.48;1716757;83;21016;-64
2020/12/08 01:15:12;;;;;;;19.93;8.83;;;;;;;-8.25;77.36;101138.53;1717852;83;21556;-63
2020/12/08 01:17:40;;;;;;;12.73;7.63;;;;;;;-8.23;77.35;101124.45;1717953;83;21170;-63
2020/12/08 01:20:08;;;;;;;11.80;6.50;;;;;;;-8.16;77.33;101123.61;1717849;83;21239;-68
2020/12/08 01:22:37;;;;;;;13.00;8.33;;;;;;;-8.12;77.31;101120.71;1710728;83;21591;-63
2020/12/08 01:25:06;;;;;;;10.13;6.20;;;;;;;-8.08;77.27;101120.88;1704936;83;21008;-64
2020/12/08 01:27:35;;;;;;;13.50;8.77;;;;;;;-8.01;77.26;101127.38;1677387;83;21176;-65
2020/12/08 01:30:05;;;;;;;9.87;6.80;;;;;;;-8.01;77.10;101123.47;1689144;85;21627;-64
2020/12/08 01:32:35;;;;;;;15.30;7.43;;;;;;;-7.92;77.19;101126.45;1710172;83;21155;-63
2020/12/08 01:35:02;;;;;;;12.00;7.43;;;;;;;-7.85;76.88;101131.17;1717874;83;22364;-65
2020/12/08 01:37:30;;;;;;;18.07;8.57;;;;;;;-7.85;76.84;101125.95;1717050;83;21119;-63
2020/12/08 01:39:59;;;;;;;11.73;5.40;;;;;;;-7.84;76.74;101132.02;1717816;83;21122;-64
2020/12/08 01:42:29;;;;;;;11.27;6.83;;;;;;;-7.85;76.73;101137.70;1711672;83;21129;-64
2020/12/08 01:44:57;;;;;;;11.60;7.13;;;;;;;-7.90;76.75;101122.80;1650055;86;21604;-63
2020/12/08 01:47:26;;;;;;;10.40;7.53;;;;;;;-7.99;76.87;101124.69;1706198;83;21219;-63
2020/12/08 01:49:54;;;;;;;12.83;7.57;;;;;;;-7.98;76.96;101121.98;1706079;84;21022;-64
2020/12/08 01:52:22;;;;;;;13.83;7.77;;;;;;;-7.87;76.97;101122.63;1689493;84;21131;-63
2020/12/08 01:54:53;;;;;;;14.47;7.90;;;;;;;-7.81;76.74;101123.52;1680273;84;21085;-63
2020/12/08 01:57:22;;;;;;;22.13;10.00;;;;;;;-7.79;76.75;101122.13;1694413;84;21209;-63
2020/12/08 01:59:51;;;;;;;14.33;9.73;;;;;;;-7.76;76.60;101124.06;1694302;84;21205;-64
2020/12/08 02:02:20;;;;;;;19.10;10.30;;;;;;;-7.75;76.51;101130.12;1693123;84;21079;-64
2020/12/08 02:04:49;;;;;;;23.10;9.50;;;;;;;-7.74;76.63;101120.90;1663758;86;21191;-62
2020/12/08 02:07:18;;;;;;;16.00;9.37;;;;;;;-7.61;76.62;101127.00;1641866;86;21626;-64
2020/12/08 02:09:46;;;;;;;12.03;8.33;;;;;;;-7.55;76.25;101130.53;1674652;85;21162;-63
2020/12/08 02:12:15;;;;;;;7.70;5.57;;;;;;;-7.49;75.94;101131.92;1673034;85;21247;-64
2020/12/08 02:14:43;;;;;;;12.87;7.83;;;;;;;-7.56;75.79;101127.55;1674997;85;21102;-63
2020/12/08 02:17:11;;;;;;;9.07;5.57;;;;;;;-7.62;75.81;101129.23;1674731;85;21175;-64
2020/12/08 02:19:39;;;;;;;13.53;7.63;;;;;;;-7.60;76.04;101125.23;1674743;85;21967;-65
2020/12/08 02:22:08;;;;;;;14.83;8.27;;;;;;;-7.61;76.04;101133.53;1664228;85;21201;-65
2020/12/08 02:24:37;;;;;;;12.23;6.63;;;;;;;-7.53;76.15;101131.25;1687894;85;21217;-63
2020/12/08 02:27:06;;;;;;;14.47;7.67;;;;;;;-7.46;75.89;101132.17;1668960;84;21165;-64
2020/12/08 02:29:34;;;;;;;11.97;7.00;;;;;;;-7.52;75.79;101130.33;1624487;87;21615;-64
2020/12/08 02:32:02;;;;;;;13.13;7.00;;;;;;;-7.53;75.85;101129.95;1656754;85;21685;-63
2020/12/08 02:34:30;;;;;;;13.23;6.70;;;;;;;-7.48;75.84;101130.95;1700929;83;21143;-64
2020/12/08 02:36:58;;;;;;;6.67;4.57;;;;;;;-7.47;75.74;101123.49;1667968;85;22220;-64
2020/12/08 02:39:28;;;;;;;13.60;7.47;;;;;;;-7.47;75.77;101130.02;1687277;84;21186;-64
2020/12/08 02:41:58;;;;;;;10.77;7.20;;;;;;;-7.58;75.85;101127.29;1670348;85;21093;-62
2020/12/08 02:44:27;;;;;;;13.00;7.33;;;;;;;-7.62;76.12;101116.18;1647426;87;21644;-63
2020/12/08 02:47:05;;;;;;;12.83;7.33;;;;;;;-7.64;76.29;101119.84;1647477;87;21138;-62
2020/12/08 02:49:33;;;;;;;20.70;8.40;;;;;;;-7.62;76.32;101120.09;1657506;85;21289;-63
2020/12/08 02:52:02;;;;;;;13.20;6.33;;;;;;;-7.64;76.37;101114.62;1691734;84;21067;-63
2020/12/08 02:54:31;;;;;;;16.60;7.03;;;;;;;-7.56;76.51;101116.26;1691687;84;21211;-71
2020/12/08 02:57:02;;;;;;;12.93;7.80;;;;;;;-7.57;76.58;101117.19;1688527;84;21513;-62
2020/12/08 02:59:34;;;;;;;17.80;8.60;;;;;;;-7.59;76.71;101111.24;1694396;84;21170;-64
2020/12/08 03:02:02;;;;;;;11.83;8.47;;;;;;;-7.50;76.70;101121.09;1670397;84;22162;-64
2020/12/08 03:04:32;;;;;;;12.53;8.70;;;;;;;-7.46;76.47;101119.95;1666482;84;21197;-67
2020/12/08 03:07:01;;;;;;;11.33;7.17;;;;;;;-7.51;76.52;101117.64;1689610;84;21017;-64
2020/12/08 03:09:29;;;;;;;20.03;8.50;;;;;;;-7.53;76.61;101119.50;1638646;87;21620;-64
2020/12/08 03:11:57;;;;;;;10.63;6.87;;;;;;;-7.50;76.61;101118.02;1641851;86;21656;-63
2020/12/08 03:14:25;;;;;;;11.23;8.40;;;;;;;-7.46;76.51;101120.42;1662435;86;21378;-63
2020/12/08 03:16:56;;;;;;;12.00;6.70;;;;;;;-7.43;76.53;101119.73;1694260;83;21130;-65
2020/12/08 03:19:25;;;;;;;17.83;8.00;;;;;;;-7.45;76.39;101120.80;1694583;84;21187;-62
2020/12/08 03:21:53;;;;;;;15.60;7.60;;;;;;;-7.55;76.72;101123.16;1692101;84;21029;-63
2020/12/08 03:24:23;;;;;;;11.53;7.67;;;;;;;-7.60;76.80;101123.92;1694940;82;21173;-63
2020/12/08 03:26:50;;;;;;;17.83;10.23;;;;;;;-7.66;77.01;101113.40;1694007;84;22771;-64
2020/12/08 03:29:18;;;;;;;13.07;6.63;;;;;;;-7.65;77.10;101114.24;1693928;84;21210;-64
2020/12/08 03:31:46;;;;;;;15.23;8.07;;;;;;;-7.69;77.21;101111.00;1694278;84;21536;-69
2020/12/08 03:34:15;;;;;;;18.70;9.10;;;;;;;-7.73;77.36;101109.98;1694318;84;21161;-65
2020/12/08 03:36:43;;;;;;;16.87;9.20;;;;;;;-7.70;77.41;101101.95;1693193;84;21166;-67
2020/12/08 03:39:12;;;;;;;13.80;9.00;;;;;;;-7.71;77.52;101102.41;1692515;84;21606;-63
2020/12/08 03:41:41;;;;;;;11.70;6.00;;;;;;;-7.66;77.47;101092.51;1690701;84;21057;-75
2020/12/08 03:44:10;;;;;;;20.80;9.00;;;;;;;-7.67;77.44;101090.82;1672427;85;21609;-63
2020/12/08 03:46:41;;;;;;;14.20;8.93;;;;;;;-7.69;77.53;101090.11;1663956;85;21125;-66
2020/12/08 03:49:10;;;;;;;15.47;8.20;;;;;;;-7.70;77.61;101091.50;1646289;85;21163;-63
2020/12/08 03:51:38;;;;;;;18.47;9.87;;;;;;;-7.61;77.71;101082.59;1666297;85;22276;-68
2020/12/08 03:54:07;;;;;;;12.80;8.10;;;;;;;-7.63;77.39;101092.33;1685781;84;21238;-62
2020/12/08 03:56:38;;;;;;;19.57;11.40;;;;;;;-7.61;77.48;101094.36;1676385;84;21189;-67
2020/12/08 03:59:07;;;;;;;20.53;11.57;;;;;;;-7.63;77.45;101089.72;1682573;85;21080;-62
2020/12/08 04:01:35;;;;;;;14.87;10.27;;;;;;;-7.67;77.56;101089.98;1681777;84;21633;-64
2020/12/08 04:04:04;;;;;;;22.97;9.63;;;;;;;-7.71;77.81;101098.95;1700752;84;21452;-63
2020/12/08 04:06:32;;;;;;;16.30;10.37;;;;;;;-7.78;77.96;101094.62;1703356;83;21200;-63
2020/12/08 04:09:00;;;;;;;10.20;4.90;;;;;;;-7.81;78.15;101090.03;1699527;84;21039;-68
2020/12/08 04:11:30;;;;;;;15.93;8.87;;;;;;;-7.79;78.25;101096.02;1715299;83;21189;-65
2020/12/08 04:14:00;;;;;;;19.97;12.10;;;;;;;-7.82;78.50;101091.00;1718003;83;21161;-64
2020/12/08 04:16:30;;;;;;;32.70;9.50;;;;;;;-7.81;78.51;101086.12;1732830;82;21206;-64
2020/12/08 04:19:00;;;;;;;18.40;9.83;;;;;;;-7.76;78.52;101094.03;1709404;83;21168;-65
2020/12/08 04:21:29;;;;;;;16.70;9.03;;;;;;;-7.83;78.57;101088.85;1709826;83;21184;-63
2020/12/08 04:24:03;;;;;;;14.43;9.47;;;;;;;-7.90;78.77;101082.33;1666432;85;21254;-62
2020/12/08 04:26:31;;;;;;;16.63;10.37;;;;;;;-7.93;79.03;101078.63;1660784;85;21149;-63
2020/12/08 04:29:01;;;;;;;21.77;11.35;;;;;;;-7.91;78.98;101087.17;1715896;82;22226;-64
2020/12/08 04:31:31;;;;;;;16.60;11.30;;;;;;;-7.81;78.97;101092.18;1733165;82;21181;-64
2020/12/08 04:33:59;;;;;;;17.73;9.57;;;;;;;-7.83;78.96;101081.02;1701697;84;21267;-65
2020/12/08 04:36:27;;;;;;;17.43;9.20;;;;;;;-7.76;78.84;101082.75;1716462;83;21580;-67
2020/12/08 04:38:54;;;;;;;15.80;9.50;;;;;;;-7.71;78.72;101079.37;1671968;85;21138;-63
2020/12/08 04:41:24;;;;;;;25.50;10.80;;;;;;;-7.69;78.60;101083.58;1716470;83;21215;-61
2020/12/08 04:43:53;;;;;;;16.47;7.30;;;;;;;-7.65;78.53;101085.05;1701565;84;21149;-62
2020/12/08 04:46:21;;;;;;;11.50;6.83;;;;;;;-7.57;78.39;101091.06;1716575;83;21564;-65
2020/12/08 04:48:50;;;;;;;13.40;7.83;;;;;;;-7.60;78.17;101076.45;1669902;85;21197;-63
2020/12/08 04:51:17;;;;;;;17.27;10.10;;;;;;;-7.56;78.13;101083.60;1696678;84;21558;-65
2020/12/08 04:53:53;;;;;;;11.33;7.13;;;;;;;-7.54;77.83;101085.20;1703326;83;21557;-64
2020/12/08 04:56:21;;;;;;;20.10;8.30;;;;;;;-7.51;77.78;101084.14;1668056;84;21602;-63
2020/12/08 04:58:49;;;;;;;12.87;6.57;;;;;;;-7.44;77.67;101081.52;1706635;83;21639;-62
2020/12/08 05:01:26;;;;;;;6.03;5.10;;;;;;;-7.50;77.14;101090.59;1664882;86;21251;-64
2020/12/08 05:04:00;;;;;;;11.93;7.63;;;;;;;-7.60;77.36;101080.83;1706759;84;21143;-64
2020/12/08 05:06:29;;;;;;;18.90;9.60;;;;;;;-7.66;77.45;101078.61;1665017;86;22116;-63
2020/12/08 05:09:09;;;;;;;9.43;6.30;;;;;;;-7.72;77.42;101075.92;1706586;84;21147;-66
2020/12/08 05:11:36;;;;;;;20.87;8.93;;;;;;;-7.85;77.40;101086.79;1664306;86;21613;-64
2020/12/08 05:14:05;;;;;;;15.57;9.30;;;;;;;-7.85;77.50;101091.17;1697461;84;21626;-63
2020/12/08 05:16:33;;;;;;;18.90;11.87;;;;;;;-7.84;77.59;101087.63;1690142;84;21626;-65
2020/12/08 05:19:09;;;;;;;16.33;9.17;;;;;;;-7.80;77.80;101092.56;1690133;84;21188;-64
2020/12/08 05:21:52;;;;;;;21.93;10.57;;;;;;;-7.79;77.78;101085.10;1670785;84;21131;-65
2020/12/08 05:24:27;;;;;;;;;;;;;;;-7.82;77.76;101093.14;1695906;84;21050;-66
2020/12/08 05:27:00;;;;;;;12.37;7.93;;;;;;;-7.87;77.99;101099.59;1690159;84;20221;-63
2020/12/08 05:29:32;;;;;;;18.17;10.27;;;;;;;-7.88;78.18;101097.44;1674855;84;21658;-65
2020/12/08 05:32:24;;;;;;;18.13;10.87;;;;;;;-7.83;78.27;101094.07;1692833;84;21392;-67
2020/12/08 05:34:53;;;;;;;14.77;9.97;;;;;;;-7.73;78.24;101086.48;1704492;84;21139;-71
2020/12/08 05:37:21;;;;;;;14.07;7.53;;;;;;;-7.66;77.95;101083.36;1694173;84;21177;-64
2020/12/08 05:39:48;;;;;;;14.67;11.00;;;;;;;-7.66;77.63;101087.75;1706696;84;21549;-64
2020/12/08 05:42:20;;;;;;;27.27;10.00;;;;;;;-7.61;77.75;101091.74;1694354;83;21564;-63
2020/12/08 05:44:51;;;;;;;19.40;11.10;;;;;;;-7.57;77.65;101092.38;1706630;84;21151;-64
2020/12/08 05:47:21;;;;;;;24.23;11.27;;;;;;;-7.56;77.46;101087.06;1693483;84;21296;-64
2020/12/08 05:50:00;;;;;;;20.10;12.13;;;;;;;-7.63;77.52;101080.58;1704998;84;21226;-64
2020/12/08 05:52:35;;;;;;;29.90;11.50;;;;;;;-7.73;77.87;101089.94;1710023;83;21248;-63
2020/12/08 05:55:12;;;;;;;34.67;14.67;;;;;;;-7.69;78.14;101090.56;1716295;83;21190;-67
2020/12/08 05:57:40;;;;;;;27.87;15.97;;;;;;;-7.67;78.11;101083.45;1717087;83;21206;-63
2020/12/08 06:00:27;;;;;;;28.43;13.00;;;;;;;-7.64;78.18;101085.42;1681253;85;21024;-65
2020/12/08 06:03:13;;;;;;;27.27;15.20;;;;;;;-7.66;78.26;101082.53;1662326;86;21778;-63
2020/12/08 06:05:45;;;;;;;28.80;14.67;;;;;;;-7.64;78.26;101085.42;1679707;85;21129;-66
2020/12/08 06:08:21;;;;;;;25.20;16.57;;;;;;;-7.63;78.36;101083.19;1679561;85;21631;-64
2020/12/08 06:10:53;;;;;;;30.03;13.60;;;;;;;-7.68;78.54;101090.48;1680887;85;22703;-65
2020/12/08 06:13:28;;;;;;;35.63;16.23;;;;;;;-7.64;78.70;101084.12;1680850;85;21232;-64
2020/12/08 06:15:59;;;;;;;18.70;11.57;;;;;;;-7.62;78.75;101082.69;1680593;85;21151;-65
2020/12/08 06:18:36;;;;;;;29.73;15.03;;;;;;;-7.61;78.75;101079.98;1680966;85;21126;-66
2020/12/08 06:21:07;;;;;;;25.10;15.77;;;;;;;-7.66;78.65;101088.59;1681426;85;21125;-65
2020/12/08 06:23:34;;;;;;;19.60;11.17;;;;;;;-7.68;78.86;101073.50;1682562;85;21609;-65
2020/12/08 06:26:03;;;;;;;21.73;13.60;;;;;;;-7.70;79.03;101083.66;1706091;83;21240;-68
2020/12/08 06:28:31;;;;;;;22.47;11.97;;;;;;;-7.67;79.29;101088.67;1717542;82;21588;-62
2020/12/08 06:31:07;;;;;;;32.37;15.10;;;;;;;-7.61;79.25;101074.77;1680992;85;21677;-63
2020/12/08 06:33:49;;;;;;;18.87;10.10;;;;;;;-7.60;79.14;101080.36;1706313;84;21160;-63
2020/12/08 06:36:18;;;;;;;24.83;14.53;;;;;;;-7.56;79.13;101078.38;1684131;85;22278;-63
2020/12/08 06:39:01;;;;;;;33.57;14.30;;;;;;;-7.57;79.18;101079.31;1706025;84;21200;-64
2020/12/08 06:41:35;;;;;;;20.08;10.00;;;;;;;-7.59;79.17;101078.59;1684350;85;21604;-63
2020/12/08 06:44:04;;;;;;;22.43;13.17;;;;;;;-7.68;79.12;101089.17;1706116;84;21172;-63
2020/12/08 06:46:35;;;;;;;22.90;14.17;;;;;;;-7.75;79.36;101080.05;1659926;85;21584;-65
2020/12/08 06:49:08;;;;;;;23.70;12.47;;;;;;;-7.80;79.60;101080.81;1681179;84;21620;-65
2020/12/08 06:51:37;;;;;;;;;;;;;;;-7.81;80.10;101088.73;1666052;86;21176;-65
2020/12/08 06:54:14;;;;;;;29.63;18.43;;;;;;;-7.80;80.25;101092.56;1662828;85;20290;-65
2020/12/08 06:56:42;;;;;;;28.50;14.00;;;;;;;-7.72;80.25;101090.78;1680569;85;21184;-63
2020/12/08 06:59:21;;;;;;;36.37;14.50;;;;;;;-7.66;79.92;101084.67;1681148;84;21174;-64
2020/12/08 07:01:53;;;;;;;15.60;10.53;;;;;;;-7.62;79.69;101091.37;1641191;86;21191;-65
2020/12/08 07:04:22;;;;;;;20.08;12.00;;;;;;;-7.65;79.49;101092.88;1680132;84;21214;-64
2020/12/08 07:06:51;;;;;;;22.27;12.27;;;;;;;-7.67;79.68;101089.52;1682639;85;21147;-64
2020/12/08 07:09:19;;;;;;;26.83;13.27;;;;;;;-7.66;79.61;101083.83;1706048;83;21046;-62
2020/12/08 07:11:46;;;;;;;33.83;14.87;;;;;;;-7.68;79.44;101090.48;1706140;84;21637;-64
2020/12/08 07:14:14;;;;;;;27.40;12.90;;;;;;;-7.69;79.60;101083.58;1679770;85;21376;-64
2020/12/08 07:16:42;;;;;;;28.57;15.40;;;;;;;-7.64;79.62;101081.97;1710726;83;21204;-65
2020/12/08 07:19:09;;;;;;;27.33;14.47;;;;;;;-7.58;79.60;101088.92;1681082;85;21171;-64
2020/12/08 07:21:37;;;;;;;28.57;14.70;;;;;;;-7.52;79.48;101099.44;1651675;86;21133;-64
2020/12/08 07:24:06;;;;;;;20.93;11.23;;;;;;;-7.49;79.11;101095.34;1678879;85;21184;-66
2020/12/08 07:26:34;;;;;;;32.53;17.17;;;;;;;-7.56;79.18;101092.75;1679720;85;22229;-64
2020/12/08 07:29:02;;;;;;;35.77;20.83;;;;;;;-7.55;79.19;101096.58;1679466;85;21659;-63
2020/12/08 07:31:30;;;;;;;42.67;19.67;;;;;;;-7.55;79.38;101093.12;1680500;84;21705;-64
2020/12/08 07:34:00;;;;;;;19.67;13.20;;;;;;;-7.51;79.52;101094.59;1681326;85;21148;-67
2020/12/08 07:36:33;;;;;;;33.87;15.77;;;;;;;-7.48;79.64;101094.87;1682746;85;21574;-64
2020/12/08 07:39:02;;;;;;;27.93;16.47;;;;;;;-7.49;79.56;101092.73;1706402;84;21154;-65
2020/12/08 07:41:30;;;;;;;27.60;13.63;;;;;;;-7.43;79.65;101093.61;1684042;85;21383;-66
2020/12/08 07:43:59;;;;;;;29.33;13.40;;;;;;;-7.35;79.36;101101.81;1707946;83;21754;-67
2020/12/08 07:46:28;;;;;;;28.53;14.87;;;;;;;-7.35;79.30;101100.97;1716377;83;21581;-67
2020/12/08 07:49:07;;;;;;;28.57;15.30;;;;;;;-7.32;79.38;101096.37;1716341;83;21612;-64
2020/12/08 07:51:36;;;;;;;34.73;15.17;;;;;;;-7.33;79.52;101099.07;1713726;83;21369;-63
2020/12/08 07:54:05;;;;;;;24.73;13.47;;;;;;;-7.41;79.83;101091.75;1683954;85;21159;-65
2020/12/08 07:56:36;;;;;;;28.17;14.90;;;;;;;-7.45;80.22;101090.28;1711665;83;21072;-65
2020/12/08 07:59:04;;;;;;;22.67;13.53;;;;;;;-7.43;80.32;101091.50;1717550;83;21588;-63
2020/12/08 08:01:43;;;;;;;27.27;14.87;;;;;;;-7.42;80.49;101091.37;1680964;85;21199;-66
2020/12/08 08:04:11;;;;;;;31.37;14.37;;;;;;;-7.41;80.54;101089.60;1663608;86;21400;-65
2020/12/08 08:06:38;;;;;;;27.23;14.03;;;;;;;-7.26;80.75;101085.52;1663569;86;21151;-66
2020/12/08 08:09:07;;;;;;;23.63;12.93;;;;;;;-7.15;80.63;101093.49;1652138;86;21578;-64
2020/12/08 08:11:36;;;;;;;35.97;17.27;;;;;;;-7.12;80.49;101086.73;1683398;85;21174;-65
2020/12/08 08:14:04;;;;;;;28.87;15.63;;;;;;;-7.10;80.56;101084.84;1706090;84;21621;-64
2020/12/08 08:16:34;;;;;;;34.73;18.80;;;;;;;-7.04;80.67;101084.91;1711538;82;21197;-67
2020/12/08 08:19:03;;;;;;;35.60;16.30;;;;;;;-7.01;80.66;101083.88;1684608;85;21193;-63
2020/12/08 08:21:31;;;;;;;28.07;15.87;;;;;;;-7.01;80.61;101076.88;1713095;83;21255;-64
2020/12/08 08:23:59;;;;;;;32.50;17.37;;;;;;;-7.03;80.78;101078.73;1681210;85;21186;-62
2020/12/08 08:26:28;;;;;;;26.20;14.27;;;;;;;-6.93;80.96;101078.95;1663711;86;21573;-64
2020/12/08 08:28:56;;;;;;;24.53;15.27;;;;;;;-6.86;80.84;101079.77;1681221;85;22316;-63
2020/12/08 08:31:23;;;;;;;28.03;15.53;;;;;;;-6.90;80.69;101078.73;1652023;86;21241;-62
2020/12/08 08:33:52;;;;;;;20.07;11.40;;;;;;;-6.93;81.06;101074.56;1680753;85;21615;-63
2020/12/08 08:36:20;;;;;;;20.87;12.40;;;;;;;-6.92;81.21;101072.32;1681658;85;21191;-62
2020/12/08 08:38:47;;;;;;;16.90;9.17;;;;;;;-6.91;81.28;101071.86;1706251;84;21173;-65
2020/12/08 08:41:15;;;;;;;20.17;10.97;;;;;;;-6.87;81.25;101075.93;1706192;84;21198;-66
2020/12/08 08:43:43;;;;;;;25.53;12.90;;;;;;;-6.84;80.95;101076.55;1706198;83;21181;-64
2020/12/08 08:46:12;;;;;;;29.93;11.07;;;;;;;-6.83;81.11;101073.47;1706176;84;21213;-63
2020/12/08 08:48:40;;;;;;;23.50;11.47;;;;;;;-6.83;80.83;101071.69;1706216;84;21021;-64
2020/12/08 08:51:07;;;;;;;19.10;10.60;;;;;;;-6.83;80.58;101069.08;1706218;84;21759;-64
2020/12/08 08:53:35;;;;;;;21.47;13.20;;;;;;;-6.78;80.03;101062.22;1716025;83;22449;-64
2020/12/08 08:56:03;;;;;;;22.30;13.53;;;;;;;-6.66;80.27;101064.81;1707901;83;21042;-64
2020/12/08 08:58:31;;;;;;;29.57;14.77;;;;;;;-6.50;80.06;101058.52;1656498;86;21144;-63
2020/12/08 09:00:58;;;;;;;23.13;11.17;;;;;;;-6.42;79.37;101062.73;1690104;85;21174;-64
2020/12/08 09:03:26;;;;;;;17.30;11.63;;;;;;;-6.40;78.70;101062.17;1691207;85;21166;-65
2020/12/08 09:05:54;;;;;;;21.27;12.30;;;;;;;-6.42;78.28;101061.43;1689722;85;22277;-64
2020/12/08 09:08:24;;;;;;;19.93;12.30;;;;;;;-6.41;78.06;101062.64;1656433;86;21182;-64
2020/12/08 09:10:52;;;;;;;22.97;12.73;;;;;;;-6.47;77.77;101060.95;1705810;83;21297;-63
2020/12/08 09:13:21;;;;;;;19.70;13.03;;;;;;;-6.56;77.65;101054.55;1684107;85;21619;-63
2020/12/08 09:15:49;;;;;;;28.53;13.70;;;;;;;-6.58;77.57;101059.54;1713536;83;21133;-63
2020/12/08 09:18:19;;;;;;;33.70;13.80;;;;;;;-6.55;77.75;101055.39;1684607;85;21282;-65
2020/12/08 09:20:47;;;;;;;29.50;13.87;;;;;;;-6.51;77.68;101047.69;1715186;83;21644;-64
2020/12/08 09:23:15;;;;;;;24.10;13.57;;;;;;;-6.48;77.63;101048.33;1684240;85;21155;-65
2020/12/08 09:25:42;;;;;;;20.93;11.40;;;;;;;-6.47;77.12;101039.52;1718475;83;21617;-65
2020/12/08 09:28:10;;;;;;;19.40;11.27;;;;;;;-6.45;77.14;101038.95;1683882;85;21190;-67
2020/12/08 09:30:37;;;;;;;22.07;11.83;;;;;;;-6.44;77.08;101040.63;1718502;83;22046;-64
2020/12/08 09:33:05;;;;;;;19.03;9.43;;;;;;;-6.43;77.06;101041.46;1684121;83;21171;-63
2020/12/08 09:35:33;;;;;;;37.17;14.83;;;;;;;-6.37;77.12;101039.70;1718377;83;21020;-64
2020/12/08 09:38:02;;;;;;;27.83;14.23;;;;;;;-6.37;77.21;101043.16;1684153;85;21643;-69
2020/12/08 09:40:30;;;;;;;28.90;13.50;;;;;;;-6.32;77.30;101043.67;1718497;83;21588;-64
2020/12/08 09:42:58;;;;;;;23.47;14.23;;;;;;;-6.25;77.23;101037.53;1684007;85;21598;-70
2020/12/08 09:45:26;;;;;;;18.73;11.00;;;;;;;-6.23;77.30;101046.09;1716035;83;21186;-64
2020/12/08 09:47:53;;;;;;;17.27;9.87;;;;;;;-6.24;77.50;101053.14;1684874;84;21595;-66
2020/12/08 09:50:21;;;;;;;17.03;11.07;;;;;;;-6.26;77.42;101050.25;1718535;83;21162;-64
2020/12/08 09:52:49;;;;;;;27.57;11.50;;;;;;;-6.25;77.39;101049.31;1684762;84;21579;-65
2020/12/08 09:55:17;;;;;;;16.57;10.57;;;;;;;-6.12;77.45;101056.66;1714929;82;22251;-63
2020/12/08 09:57:44;;;;;;;13.23;8.27;;;;;;;-6.03;77.08;101053.38;1698332;84;21193;-64
2020/12/08 10:00:12;;;;;;;29.00;17.50;;;;;;;-5.99;76.87;101044.34;1703017;83;21181;-65
2020/12/08 10:02:40;;;;;;;20.67;15.00;;;;;;;-5.97;76.85;101047.70;1697511;84;22270;-66
2020/12/08 10:05:08;;;;;;;25.47;13.80;;;;;;;-5.94;76.84;101051.39;1684068;85;21186;-63
2020/12/08 10:07:36;;;;;;;23.27;11.53;;;;;;;-5.88;76.56;101048.81;1684139;85;21312;-66
2020/12/08 10:10:04;;;;;;;23.73;14.30;;;;;;;-5.88;76.54;101041.79;1684186;85;21234;-67
2020/12/08 10:12:33;;;;;;;10.53;7.20;;;;;;;-5.91;76.24;101052.50;1684222;85;21629;-69
2020/12/08 10:15:01;;;;;;;28.97;15.40;;;;;;;-5.90;76.23;101057.27;1733805;82;21162;-63
2020/12/08 10:17:29;;;;;;;28.07;14.47;;;;;;;-5.89;76.24;101058.92;1701712;84;21626;-62
2020/12/08 10:19:57;;;;;;;19.33;11.60;;;;;;;-5.93;76.34;101060.93;1682644;85;22380;-66
2020/12/08 10:22:24;;;;;;;32.27;14.93;;;;;;;-5.98;76.42;101053.03;1700793;84;21182;-64
2020/12/08 10:24:52;;;;;;;27.73;12.07;;;;;;;-6.00;76.64;101054.48;1704128;83;21150;-62
2020/12/08 10:27:20;;;;;;;22.77;12.73;;;;;;;-6.03;76.95;101051.22;1699741;84;21229;-65
2020/12/08 10:29:48;;;;;;;19.77;11.10;;;;;;;-6.01;77.21;101050.18;1670660;85;21182;-65
2020/12/08 10:32:16;;;;;;;27.47;15.50;;;;;;;-5.86;77.33;101052.97;1677796;85;21242;-64
2020/12/08 10:34:44;;;;;;;25.53;14.73;;;;;;;-5.75;77.06;101047.77;1732002;82;21743;-63
2020/12/08 10:37:12;;;;;;;26.87;13.43;;;;;;;-5.67;77.01;101051.16;1701761;83;21141;-66
2020/12/08 10:39:41;;;;;;;21.03;11.57;;;;;;;-5.65;76.88;101045.78;1695709;84;21200;-65
2020/12/08 10:42:10;;;;;;;25.20;13.60;;;;;;;-5.69;77.07;101046.95;1708246;83;21165;-64
2020/12/08 10:44:40;;;;;;;14.93;9.80;;;;;;;-5.73;77.27;101037.19;1700398;83;21621;-65
2020/12/08 10:47:08;;;;;;;27.93;14.10;;;;;;;-5.76;77.44;101043.97;1700199;84;21185;-63
2020/12/08 10:49:36;;;;;;;26.07;14.33;;;;;;;-5.80;77.71;101032.86;1714627;83;21121;-65
2020/12/08 10:52:04;;;;;;;32.57;16.33;;;;;;;-5.81;77.83;101032.98;1701324;84;21688;-64
2020/12/08 10:54:31;;;;;;;34.60;16.60;;;;;;;-5.76;78.19;101040.04;1717001;83;21615;-64
2020/12/08 10:56:59;;;;;;;11.80;8.33;;;;;;;-5.70;78.59;101029.09;1683602;85;21532;-70
2020/12/08 10:59:28;;;;;;;37.57;17.90;;;;;;;-5.67;78.58;101035.91;1661942;85;21677;-67
2020/12/08 11:01:57;;;;;;;34.83;18.40;;;;;;;-5.72;78.45;101034.93;1676938;85;21012;-66
2020/12/08 11:04:25;;;;;;;30.03;16.00;;;;;;;-5.70;78.66;101025.16;1680833;85;21158;-66
2020/12/08 11:06:58;;;;;;;24.87;13.93;;;;;;;-5.65;78.66;101014.34;1680644;85;21637;-68
2020/12/08 11:09:26;;;;;;;25.43;14.40;;;;;;;-5.59;78.47;101025.68;1680795;85;21430;-68
2020/12/08 11:11:53;;;;;;;38.63;18.00;;;;;;;-5.58;78.24;101024.73;1714421;83;21576;-69
2020/12/08 11:14:22;;;;;;;30.13;16.00;;;;;;;-5.60;78.01;101019.59;1680705;83;21142;-67
2020/12/08 11:16:49;;;;;;;25.77;14.23;;;;;;;-5.58;77.75;101021.64;1663688;86;22664;-64
2020/12/08 11:19:20;;;;;;;43.67;21.00;;;;;;;-5.53;77.79;101019.99;1656019;86;21204;-65
2020/12/08 11:21:47;;;;;;;38.00;20.63;;;;;;;-5.52;78.17;101019.05;1680822;85;22205;-60
2020/12/08 11:24:16;;;;;;;25.23;14.00;;;;;;;-5.44;78.22;101015.38;1678615;85;21645;-70